createdAt,value
2018-05-16T00:01:58.309Z,101568.57
2018-05-16T00:04:24.428Z,101565.09
2018-05-16T00:06:50.692Z,101557.64
2018-05-16T00:09:16.912Z,101563.86
2018-05-16T00:11:43.383Z,101561.71
2018-05-16T00:14:09.543Z,101568.67
2018-05-16T00:16:35.713Z,101564.99
2018-05-16T00:19:01.933Z,101565.81
2018-05-16T00:21:28.202Z,101561.75
2018-05-16T00:23:54.322Z,101567.05
2018-05-16T00:26:20.454Z,101571.51
2018-05-16T00:28:46.604Z,101578.13
2018-05-16T00:31:12.741Z,101577.25
2018-05-16T00:33:38.929Z,101579.47
2018-05-16T00:36:05.072Z,101579.06
2018-05-16T00:38:31.481Z,101579.08
2018-05-16T00:40:57.769Z,101580.00
2018-05-16T00:43:23.909Z,101581.48
2018-05-16T00:45:50.376Z,101579.22
2018-05-16T00:48:16.541Z,101569.07
2018-05-16T00:50:54.942Z,101574.31
2018-05-16T00:53:21.113Z,101569.52
2018-05-16T00:55:47.569Z,101571.31
2018-05-16T00:58:13.836Z,101574.41
2018-05-16T01:00:39.970Z,101575.30
2018-05-16T01:03:06.102Z,101566.56
2018-05-16T01:05:32.264Z,101569.22
2018-05-16T01:07:58.404Z,101574.11
2018-05-16T01:10:24.565Z,101566.67
2018-05-16T01:12:50.966Z,101565.87
2018-05-16T01:15:17.124Z,101566.28
2018-05-16T01:17:43.266Z,101567.61
2018-05-16T01:20:09.556Z,101562.80
2018-05-16T01:22:35.691Z,101560.23
2018-05-16T01:25:01.825Z,101562.95
2018-05-16T01:27:28.088Z,101559.07
2018-05-16T01:29:54.228Z,101561.33
2018-05-16T01:32:20.396Z,101560.01
2018-05-16T01:34:46.526Z,101560.05
2018-05-16T01:37:12.735Z,101558.78
2018-05-16T01:39:38.865Z,101558.38
2018-05-16T01:42:05.018Z,101558.38
2018-05-16T01:44:31.297Z,101558.87
2018-05-16T01:46:57.886Z,101560.16
2018-05-16T01:49:24.287Z,101552.69
2018-05-16T01:51:50.424Z,101548.73
2018-05-16T01:54:16.589Z,101550.98
2018-05-16T01:56:42.713Z,101551.48
2018-05-16T01:59:08.865Z,101551.13
2018-05-16T02:01:35.074Z,101548.48
2018-05-16T02:04:01.248Z,101545.92
2018-05-16T02:06:27.382Z,101544.16
2018-05-16T02:08:53.541Z,101540.68
2018-05-16T02:11:19.670Z,101544.22
2018-05-16T02:13:45.841Z,101541.58
2018-05-16T02:16:11.997Z,101546.95
2018-05-16T02:18:38.405Z,101546.08
2018-05-16T02:21:04.836Z,101545.68
2018-05-16T02:23:31.028Z,101545.34
2018-05-16T02:25:57.162Z,101551.13
2018-05-16T02:28:23.297Z,101549.86
2018-05-16T02:30:49.461Z,101545.09
2018-05-16T02:33:15.609Z,101539.41
2018-05-16T02:35:41.791Z,101536.41
2018-05-16T02:38:08.233Z,101534.66
2018-05-16T02:40:34.399Z,101535.64
2018-05-16T02:43:00.536Z,101536.19
2018-05-16T02:45:27.018Z,101534.91
2018-05-16T02:47:53.149Z,101531.19
2018-05-16T02:50:19.343Z,101529.79
2018-05-16T02:52:45.805Z,101526.61
2018-05-16T02:55:11.946Z,101523.52
2018-05-16T02:57:38.333Z,101516.90
2018-05-16T03:00:04.799Z,101523.52
2018-05-16T03:02:31.014Z,101520.59
2018-05-16T03:04:57.150Z,101517.70
2018-05-16T03:07:23.281Z,101519.12
2018-05-16T03:09:56.484Z,101520.98
2018-05-16T03:12:22.642Z,101515.94
2018-05-16T03:14:48.806Z,101516.81
2018-05-16T03:17:14.971Z,101515.94
2018-05-16T03:19:41.204Z,101512.89
2018-05-16T03:22:07.604Z,101513.72
2018-05-16T03:24:33.762Z,101518.53
2018-05-16T03:26:59.907Z,101526.47
2018-05-16T03:29:26.395Z,101526.04
2018-05-16T03:31:52.930Z,101524.72
2018-05-16T03:34:19.507Z,101524.32
2018-05-16T03:36:45.992Z,101520.34
2018-05-16T03:39:12.530Z,101516.86
2018-05-16T03:41:39.063Z,101522.60
2018-05-16T03:44:05.595Z,101516.86
2018-05-16T03:46:32.020Z,101515.93
2018-05-16T03:48:58.573Z,101519.03
2018-05-16T03:51:25.078Z,101518.63
2018-05-16T03:53:51.540Z,101522.55
2018-05-16T03:56:17.807Z,101521.72
2018-05-16T03:58:56.504Z,101520.05
2018-05-16T04:01:34.798Z,101512.02
2018-05-16T04:04:13.065Z,101508.97
2018-05-16T04:06:39.239Z,101511.19
2018-05-16T04:09:05.373Z,101509.45
2018-05-16T04:11:31.506Z,101508.63
2018-05-16T04:13:58.029Z,101511.63
2018-05-16T04:16:24.156Z,101513.88
2018-05-16T04:18:50.302Z,101514.81
2018-05-16T04:21:16.465Z,101516.48
2018-05-16T04:23:42.610Z,101520.11
2018-05-16T04:26:08.777Z,101524.27
2018-05-16T04:28:35.163Z,101530.48
2018-05-16T04:31:01.625Z,101537.05
2018-05-16T04:33:27.843Z,101535.83
2018-05-16T04:35:54.072Z,101544.12
2018-05-16T04:38:20.342Z,101545.53
2018-05-16T04:40:46.670Z,101547.60
2018-05-16T04:43:12.860Z,101542.73
2018-05-16T04:45:39.017Z,101549.75
2018-05-16T04:48:05.242Z,101542.70
2018-05-16T04:50:31.545Z,101539.11
2018-05-16T04:52:57.718Z,101545.30
2018-05-16T04:55:23.834Z,101547.20
2018-05-16T04:57:50.011Z,101541.52
2018-05-16T05:00:16.137Z,101549.02
2018-05-16T05:02:42.894Z,101546.86
2018-05-16T05:05:09.032Z,101549.55
2018-05-16T05:07:35.397Z,101553.09
2018-05-16T05:10:01.924Z,101554.94
2018-05-16T05:12:28.076Z,101551.71
2018-05-16T05:14:54.209Z,101559.50
2018-05-16T05:17:20.393Z,101559.36
2018-05-16T05:19:46.629Z,101557.91
2018-05-16T05:22:12.714Z,101555.50
2018-05-16T05:24:38.879Z,101561.24
2018-05-16T05:27:05.023Z,101560.40
2018-05-16T05:29:31.199Z,101565.08
2018-05-16T05:31:57.343Z,101560.14
2018-05-16T05:34:23.897Z,101568.48
2018-05-16T05:36:50.045Z,101567.55
2018-05-16T05:39:16.201Z,101563.92
2018-05-16T05:41:42.461Z,101566.58
2018-05-16T05:44:08.655Z,101560.05
2018-05-16T05:46:34.827Z,101553.73
2018-05-16T05:49:01.002Z,101557.27
2018-05-16T05:51:27.210Z,101551.87
2018-05-16T05:53:53.361Z,101551.77
2018-05-16T05:56:19.957Z,101552.16
2018-05-16T05:58:46.196Z,101550.39
2018-05-16T06:01:12.351Z,101543.28
2018-05-16T06:03:38.519Z,101543.62
2018-05-16T06:06:04.729Z,101542.20
2018-05-16T06:08:31.076Z,101541.56
2018-05-16T06:10:57.657Z,101544.95
2018-05-16T06:13:23.862Z,101546.36
2018-05-16T06:15:50.015Z,101541.95
2018-05-16T06:18:16.308Z,101542.93
2018-05-16T06:20:42.444Z,101543.03
2018-05-16T06:23:08.594Z,101546.13
2018-05-16T06:25:35.101Z,101551.27
2018-05-16T06:28:01.254Z,101550.23
2018-05-16T06:30:27.398Z,101559.56
2018-05-16T06:32:53.679Z,101556.33
2018-05-16T06:35:19.844Z,101555.05
2018-05-16T06:37:46.218Z,101557.65
2018-05-16T06:40:12.782Z,101555.00
2018-05-16T06:42:38.948Z,101553.61
2018-05-16T06:45:05.083Z,101557.48
2018-05-16T06:47:31.524Z,101558.28
2018-05-16T06:49:57.696Z,101560.38
2018-05-16T06:52:23.849Z,101559.39
2018-05-16T06:54:50.165Z,101551.34
2018-05-16T06:57:16.351Z,101548.98
2018-05-16T06:59:42.510Z,101551.44
2018-05-16T07:02:08.723Z,101551.31
2018-05-16T07:04:34.862Z,101550.34
2018-05-16T07:07:01.025Z,101548.09
2018-05-16T07:09:27.172Z,101553.88
2018-05-16T07:11:53.702Z,101546.85
2018-05-16T07:14:19.833Z,101544.80
2018-05-16T07:16:45.982Z,101544.52
2018-05-16T07:19:12.157Z,101542.86
2018-05-16T07:21:38.527Z,101548.25
2018-05-16T07:24:04.700Z,101540.41
2018-05-16T07:26:30.871Z,101547.52
2018-05-16T07:28:57.150Z,101548.02
2018-05-16T07:31:23.534Z,101544.77
2018-05-16T07:33:49.675Z,101545.99
2018-05-16T07:36:15.846Z,101540.25
2018-05-16T07:38:42.313Z,101542.47
2018-05-16T07:41:08.785Z,101539.27
2018-05-16T07:43:35.128Z,101548.05
2018-05-16T07:46:01.277Z,101543.14
2018-05-16T07:48:27.582Z,101542.74
2018-05-16T07:50:53.971Z,101536.13
2018-05-16T07:53:20.745Z,101540.65
2018-05-16T07:55:46.986Z,101540.31
2018-05-16T07:58:13.122Z,101542.58
2018-05-16T08:00:39.597Z,101542.67
2018-05-16T08:03:05.747Z,101546.69
2018-05-16T08:05:31.909Z,101545.36
2018-05-16T08:07:58.384Z,101544.48
2018-05-16T08:10:24.617Z,101537.38
2018-05-16T08:12:51.128Z,101541.73
2018-05-16T08:15:17.332Z,101535.48
2018-05-16T08:17:43.476Z,101531.43
2018-05-16T08:20:09.857Z,101525.73
2018-05-16T08:22:36.030Z,101532.80
2018-05-16T08:25:02.181Z,101526.52
2018-05-16T08:27:28.341Z,101527.69
2018-05-16T08:29:54.468Z,101522.66
2018-05-16T08:32:20.646Z,101522.22
2018-05-16T08:34:46.771Z,101522.67
2018-05-16T08:37:20.040Z,101523.56
2018-05-16T08:39:46.170Z,101518.75
2018-05-16T08:42:12.392Z,101515.21
2018-05-16T08:44:38.567Z,101506.39
2018-05-16T08:47:04.702Z,101500.69
2018-05-16T08:49:30.905Z,101509.52
2018-05-16T08:51:57.041Z,101501.09
2018-05-16T08:54:23.199Z,101505.94
2018-05-16T08:56:49.337Z,101501.08
2018-05-16T08:59:15.486Z,101506.16
2018-05-16T09:01:41.755Z,101502.03
2018-05-16T09:04:07.898Z,101496.66
2018-05-16T09:06:34.031Z,101499.20
2018-05-16T09:09:00.336Z,101496.50
2018-05-16T09:11:26.481Z,101501.25
2018-05-16T09:13:52.888Z,101493.69
2018-05-16T09:16:19.109Z,101498.93
2018-05-16T09:18:45.258Z,101500.69
2018-05-16T09:21:12.087Z,101500.16
2018-05-16T09:23:38.226Z,101501.36
2018-05-16T09:26:04.357Z,101494.24
2018-05-16T09:28:30.579Z,101504.35
2018-05-16T09:30:56.717Z,101495.91
2018-05-16T09:33:22.862Z,101497.17
2018-05-16T09:35:49.028Z,101486.50
2018-05-16T09:38:15.175Z,101491.72
2018-05-16T09:40:41.606Z,101490.34
2018-05-16T09:43:07.849Z,101486.75
2018-05-16T09:45:34.247Z,101491.48
2018-05-16T09:48:00.396Z,101492.33
2018-05-16T09:50:26.588Z,101495.81
2018-05-16T09:52:52.769Z,101493.58
2018-05-16T09:55:18.901Z,101492.20
2018-05-16T09:57:45.067Z,101503.63
2018-05-16T10:00:11.301Z,101492.88
2018-05-16T10:02:37.516Z,101499.50
2018-05-16T10:05:03.722Z,101491.39
2018-05-16T10:07:29.871Z,101498.79
2018-05-16T10:09:56.037Z,101498.72
2018-05-16T10:12:22.230Z,101498.17
2018-05-16T10:14:48.373Z,101497.13
2018-05-16T10:17:14.517Z,101496.19
2018-05-16T10:19:40.691Z,101489.49
2018-05-16T10:22:06.847Z,101494.23
2018-05-16T10:24:34.203Z,101495.45
2018-05-16T10:27:00.610Z,101498.80
2018-05-16T10:29:26.783Z,101498.95
2018-05-16T10:31:53.005Z,101491.70
2018-05-16T10:34:19.175Z,101495.63
2018-05-16T10:36:45.330Z,101498.55
2018-05-16T10:39:11.516Z,101491.92
2018-05-16T10:41:38.225Z,101495.79
2018-05-16T10:44:04.415Z,101487.66
2018-05-16T10:46:30.605Z,101490.06
2018-05-16T10:48:56.813Z,101495.32
2018-05-16T10:51:22.991Z,101498.80
2018-05-16T10:53:49.160Z,101498.23
2018-05-16T10:56:15.327Z,101493.95
2018-05-16T10:58:41.537Z,101492.89
2018-05-16T11:01:07.951Z,101493.17
2018-05-16T11:03:34.090Z,101493.05
2018-05-16T11:06:00.267Z,101492.48
2018-05-16T11:08:26.458Z,101485.79
2018-05-16T11:10:52.787Z,101490.59
2018-05-16T11:13:19.831Z,101491.30
2018-05-16T11:15:46.140Z,101488.47
2018-05-16T11:18:12.405Z,101488.30
2018-05-16T11:20:38.798Z,101490.65
2018-05-16T11:23:05.233Z,101490.34
2018-05-16T11:25:31.398Z,101480.29
2018-05-16T11:27:57.588Z,101485.06
2018-05-16T11:30:23.748Z,101486.83
2018-05-16T11:32:49.883Z,101491.07
2018-05-16T11:35:16.053Z,101487.45
2018-05-16T11:37:42.329Z,101480.11
2018-05-16T11:40:08.593Z,101485.19
2018-05-16T11:42:34.732Z,101490.56
2018-05-16T11:45:00.880Z,101487.53
2018-05-16T11:47:27.045Z,101488.22
2018-05-16T11:49:53.213Z,101482.80
2018-05-16T11:52:19.414Z,101487.92
2018-05-16T11:54:45.550Z,101489.05
2018-05-16T11:57:11.837Z,101491.52
2018-05-16T11:59:38.110Z,101492.98
2018-05-16T12:02:04.258Z,101490.01
2018-05-16T12:04:30.392Z,101490.27
2018-05-16T12:06:56.618Z,101498.41
2018-05-16T12:09:22.762Z,101495.00
2018-05-16T12:11:49.179Z,101493.45
2018-05-16T12:14:15.363Z,101487.58
2018-05-16T12:16:41.694Z,101490.10
2018-05-16T12:19:07.860Z,101499.41
2018-05-16T12:21:34.087Z,101497.11
2018-05-16T12:24:00.294Z,101495.17
2018-05-16T12:26:26.446Z,101493.00
2018-05-16T12:28:52.981Z,101503.02
2018-05-16T12:31:19.260Z,101502.64
2018-05-16T12:33:45.397Z,101495.11
2018-05-16T12:36:11.585Z,101499.53
2018-05-16T12:38:37.976Z,101496.44
2018-05-16T12:41:04.470Z,101496.00
2018-05-16T12:43:31.033Z,101491.05
2018-05-16T12:45:57.221Z,101491.87
2018-05-16T12:48:23.422Z,101492.25
2018-05-16T12:50:49.705Z,101491.74
2018-05-16T12:53:15.890Z,101496.43
2018-05-16T12:55:42.095Z,101500.35
2018-05-16T12:58:08.387Z,101488.31
2018-05-16T13:00:34.494Z,101491.36
2018-05-16T13:03:00.594Z,101494.00
2018-05-16T13:05:26.846Z,101513.44
2018-05-16T13:07:52.959Z,101504.37
2018-05-16T13:10:19.076Z,101507.73
2018-05-16T13:12:45.221Z,101505.89
2018-05-16T13:15:11.834Z,101509.30
2018-05-16T13:17:37.969Z,101510.06
2018-05-16T13:20:04.096Z,101519.36
2018-05-16T13:22:30.252Z,101514.38
2018-05-16T13:24:56.368Z,101512.16
2018-05-16T13:27:22.759Z,101511.67
2018-05-16T13:29:49.193Z,101522.94
2018-05-16T13:32:15.316Z,101520.64
2018-05-16T13:34:41.423Z,101509.41
2018-05-16T13:37:07.882Z,101511.44
2018-05-16T13:39:33.981Z,101511.73
2018-05-16T13:42:00.074Z,101512.05
2018-05-16T13:44:26.468Z,101507.16
2018-05-16T13:46:52.590Z,101509.30
2018-05-16T13:49:18.741Z,101506.08
2018-05-16T13:51:44.884Z,101511.72
2018-05-16T13:54:11.047Z,101512.08
2018-05-16T13:56:37.149Z,101501.73
2018-05-16T13:59:03.361Z,101504.27
2018-05-16T14:01:29.875Z,101498.87
2018-05-16T14:03:56.231Z,101500.44
2018-05-16T14:06:22.402Z,101502.36
2018-05-16T14:08:48.551Z,101505.14
2018-05-16T14:11:14.737Z,101503.38
2018-05-16T14:13:40.890Z,101504.33
2018-05-16T14:16:07.083Z,101504.84
2018-05-16T14:18:33.330Z,101502.58
2018-05-16T14:20:59.442Z,101506.64
2018-05-16T14:23:25.578Z,101501.78
2018-05-16T14:25:51.718Z,101500.52
2018-05-16T14:28:17.895Z,101496.77
2018-05-16T14:30:44.277Z,101498.37
2018-05-16T14:33:10.393Z,101501.87
2018-05-16T14:35:36.986Z,101503.86
2018-05-16T14:38:03.090Z,101497.91
2018-05-16T14:40:29.203Z,101504.94
2018-05-16T14:42:55.607Z,101500.35
2018-05-16T14:45:21.664Z,101501.89
2018-05-16T14:47:47.926Z,101503.20
2018-05-16T14:50:14.221Z,101505.53
2018-05-16T14:52:40.363Z,101498.52
2018-05-16T14:55:06.522Z,101500.78
2018-05-16T14:57:32.692Z,101505.03
2018-05-16T14:59:58.800Z,101502.62
2018-05-16T15:02:24.967Z,101499.33
2018-05-16T15:04:51.083Z,101503.25
2018-05-16T15:07:17.192Z,101501.77
2018-05-16T15:09:43.367Z,101503.76
2018-05-16T15:12:10.960Z,101500.61
2018-05-16T15:14:37.128Z,101504.13
2018-05-16T15:17:03.201Z,101504.60
2018-05-16T15:19:29.470Z,101511.25
2018-05-16T15:21:55.578Z,101504.95
2018-05-16T15:24:21.699Z,101500.84
2018-05-16T15:26:48.055Z,101517.14
2018-05-16T15:29:14.218Z,101513.92
2018-05-16T15:31:40.333Z,101507.27
2018-05-16T15:34:06.566Z,101516.84
2018-05-16T15:36:32.683Z,101515.20
2018-05-16T15:38:59.127Z,101476.38
2018-05-16T15:41:25.255Z,101517.48
2018-05-16T15:43:51.364Z,101523.00
2018-05-16T15:46:17.522Z,101513.98
2018-05-16T15:48:43.625Z,101520.75
2018-05-16T15:51:09.811Z,101530.20
2018-05-16T15:53:36.092Z,101523.12
2018-05-16T15:56:02.241Z,101523.12
2018-05-16T15:58:28.370Z,101534.84
2018-05-16T16:00:54.744Z,101526.17
2018-05-16T16:03:20.885Z,101534.84
2018-05-16T16:05:47.022Z,101543.46
2018-05-16T16:08:13.257Z,101540.55
2018-05-16T16:10:39.431Z,101538.03
2018-05-16T16:13:05.965Z,101537.70
2018-05-16T16:15:32.078Z,101540.05
2018-05-16T16:17:58.231Z,101543.71
2018-05-16T16:20:24.381Z,101538.03
2018-05-16T16:22:51.404Z,101541.19
2018-05-16T16:25:17.776Z,101545.23
2018-05-16T16:27:44.042Z,101539.60
2018-05-16T16:30:10.157Z,101537.63
2018-05-16T16:32:36.266Z,101534.72
2018-05-16T16:35:02.420Z,101533.89
2018-05-16T16:37:28.539Z,101531.67
2018-05-16T16:39:54.689Z,101534.66
2018-05-16T16:42:21.073Z,101539.67
2018-05-16T16:44:47.374Z,101535.56
2018-05-16T16:47:13.430Z,101549.28
2018-05-16T16:49:39.577Z,101545.92
2018-05-16T16:52:05.732Z,101550.68
2018-05-16T16:54:31.878Z,101556.84
2018-05-16T16:56:58.017Z,101548.69
2018-05-16T16:59:24.366Z,101552.97
2018-05-16T17:01:50.506Z,101560.28
2018-05-16T17:04:16.609Z,101554.77
2018-05-16T17:06:42.760Z,101554.52
2018-05-16T17:09:08.866Z,101559.58
2018-05-16T17:11:35.014Z,101559.32
2018-05-16T17:14:01.407Z,101559.99
2018-05-16T17:16:27.685Z,101570.33
2018-05-16T17:18:54.122Z,101558.56
2018-05-16T17:21:20.910Z,101572.39
2018-05-16T17:23:47.022Z,101575.11
2018-05-16T17:26:13.148Z,101571.58
2018-05-16T17:28:39.277Z,101581.09
2018-05-16T17:31:05.394Z,101568.33
2018-05-16T17:33:31.530Z,101576.84
2018-05-16T17:35:57.666Z,101569.94
2018-05-16T17:38:24.839Z,101576.34
2018-05-16T17:40:50.965Z,101577.30
2018-05-16T17:43:17.083Z,101577.41
2018-05-16T17:45:43.218Z,101580.95
2018-05-16T17:48:09.338Z,101577.89
2018-05-16T17:50:35.484Z,101574.87
2018-05-16T17:53:01.633Z,101581.16
2018-05-16T17:55:27.741Z,101577.69
2018-05-16T17:57:54.157Z,101576.52
2018-05-16T18:00:20.291Z,101581.44
2018-05-16T18:02:46.395Z,101589.48
2018-05-16T18:05:12.549Z,101591.80
2018-05-16T18:07:38.702Z,101586.99
2018-05-16T18:10:05.261Z,101597.26
2018-05-16T18:12:31.369Z,101598.16
2018-05-16T18:15:20.941Z,101595.16
2018-05-16T18:17:47.053Z,101591.25
2018-05-16T18:20:13.293Z,101595.77
2018-05-16T18:22:39.429Z,101602.01
2018-05-16T18:25:05.570Z,101600.55
2018-05-16T18:27:31.697Z,101595.03
2018-05-16T18:29:57.903Z,101597.23
2018-05-16T18:32:24.270Z,101595.36
2018-05-16T18:34:50.374Z,101595.91
2018-05-16T18:37:17.015Z,101591.22
2018-05-16T18:39:43.246Z,101601.20
2018-05-16T18:42:09.353Z,101603.75
2018-05-16T18:44:35.656Z,101597.80
2018-05-16T18:47:01.773Z,101595.16
2018-05-16T18:49:28.140Z,101602.39
2018-05-16T18:51:54.416Z,101597.57
2018-05-16T18:54:20.579Z,101606.23
2018-05-16T18:56:46.779Z,101606.92
2018-05-16T18:59:13.107Z,101607.95
2018-05-16T19:01:39.457Z,101609.02
2018-05-16T19:04:06.291Z,101614.45
2018-05-16T19:06:32.493Z,101613.34
2018-05-16T19:08:58.674Z,101610.47
2018-05-16T19:11:24.845Z,101607.59
2018-05-16T19:13:51.016Z,101616.52
2018-05-16T19:16:17.235Z,101625.14
2018-05-16T19:18:43.354Z,101619.48
2018-05-16T19:21:09.615Z,101620.58
2018-05-16T19:23:35.973Z,101627.44
2018-05-16T19:26:02.125Z,101632.57
2018-05-16T19:28:28.270Z,101635.95
2018-05-16T19:30:54.399Z,101638.03
2018-05-16T19:33:20.644Z,101646.80
2018-05-16T19:35:46.773Z,101643.31
2018-05-16T19:38:12.906Z,101651.97
2018-05-16T19:40:39.402Z,101654.50
2018-05-16T19:43:05.494Z,101658.38
2018-05-16T19:45:32.081Z,101664.00
2018-05-16T19:47:58.190Z,101664.77
2018-05-16T19:50:24.317Z,101673.53
2018-05-16T19:52:50.833Z,101678.30
2018-05-16T19:55:16.893Z,101683.98
2018-05-16T19:57:43.018Z,101694.08
2018-05-16T20:00:09.176Z,101690.84
2018-05-16T20:02:35.517Z,101696.93
2018-05-16T20:05:01.667Z,101696.78
2018-05-16T20:07:27.891Z,101693.70
2018-05-16T20:09:54.022Z,101708.55
2018-05-16T20:12:20.157Z,101708.48
2018-05-16T20:14:46.445Z,101705.36
2018-05-16T20:17:12.578Z,101711.45
2018-05-16T20:19:38.682Z,101710.89
2018-05-16T20:22:04.815Z,101716.22
2018-05-16T20:24:30.943Z,101716.62
2018-05-16T20:26:57.132Z,101718.75
2018-05-16T20:29:23.408Z,101721.34
2018-05-16T20:31:49.496Z,101720.47
2018-05-16T20:34:15.769Z,101721.39
2018-05-16T20:36:42.029Z,101726.67
2018-05-16T20:39:08.238Z,101720.55
2018-05-16T20:41:34.348Z,101728.44
2018-05-16T20:44:00.492Z,101719.33
2018-05-16T20:46:26.598Z,101708.44
2018-05-16T20:48:53.228Z,101714.68
2018-05-16T20:51:19.312Z,101714.72
2018-05-16T20:53:45.420Z,101725.29
2018-05-16T20:56:11.541Z,101716.12
2018-05-16T20:58:37.683Z,101730.14
2018-05-16T21:01:03.801Z,101719.64
2018-05-16T21:03:30.350Z,101719.16
2018-05-16T21:05:56.786Z,101718.83
2018-05-16T21:08:23.215Z,101717.48
2018-05-16T21:10:49.308Z,101717.52
2018-05-16T21:13:15.433Z,101723.68
2018-05-16T21:15:41.550Z,101716.70
2018-05-16T21:18:07.713Z,101721.48
2018-05-16T21:20:33.845Z,101718.39
2018-05-16T21:22:59.969Z,101724.20
2018-05-16T21:25:26.076Z,101728.70
2018-05-16T21:27:52.248Z,101731.75
2018-05-16T21:30:18.386Z,101734.84
2018-05-16T21:32:44.489Z,101742.32
2018-05-16T21:35:10.723Z,101744.08
2018-05-16T21:37:36.836Z,101746.77
2018-05-16T21:40:02.943Z,101748.97
2018-05-16T21:42:29.116Z,101753.80
2018-05-16T21:44:55.229Z,101755.13
2018-05-16T21:47:21.339Z,101748.52
2018-05-16T21:49:47.589Z,101760.86
2018-05-16T21:52:13.703Z,101758.69
2018-05-16T21:54:39.818Z,101757.88
2018-05-16T21:57:05.950Z,101756.13
2018-05-16T21:59:32.370Z,101758.69
2018-05-16T22:01:58.522Z,101756.48
2018-05-16T22:04:24.625Z,101758.28
2018-05-16T22:06:51.164Z,101763.50
2018-05-16T22:09:17.273Z,101761.22
2018-05-16T22:11:43.367Z,101757.19
2018-05-16T22:14:09.497Z,101758.98
2018-05-16T22:16:35.644Z,101758.09
2018-05-16T22:19:01.846Z,101749.33
2018-05-16T22:21:28.051Z,101759.05
2018-05-16T22:23:54.446Z,101762.66
2018-05-16T22:26:20.882Z,101761.00
2018-05-16T22:28:46.997Z,101762.28
2018-05-16T22:31:19.233Z,101753.88
2018-05-16T22:33:51.449Z,101755.23
2018-05-16T22:36:23.830Z,101757.92
2018-05-16T22:38:55.970Z,101747.89
2018-05-16T22:41:28.051Z,101750.14
2018-05-16T22:44:00.178Z,101747.09
2018-05-16T22:46:26.294Z,101744.92
2018-05-16T22:48:52.449Z,101747.16
2018-05-16T22:51:18.555Z,101754.64
2018-05-16T22:53:44.673Z,101749.44
2018-05-16T22:56:11.379Z,101748.63
2018-05-16T22:58:37.481Z,101747.38
2018-05-16T23:01:03.576Z,101747.95
2018-05-16T23:03:30.129Z,101747.84
2018-05-16T23:05:56.222Z,101746.97
2018-05-16T23:08:22.325Z,101750.59
2018-05-16T23:10:48.561Z,101759.43
2018-05-16T23:13:14.653Z,101753.30
2018-05-16T23:15:40.810Z,101755.58
2018-05-16T23:18:07.460Z,101751.68
2018-05-16T23:20:33.598Z,101754.36
2018-05-16T23:22:59.706Z,101752.56
2018-05-16T23:25:25.922Z,101745.96
2018-05-16T23:27:52.012Z,101757.00
2018-05-16T23:30:18.146Z,101750.06
2018-05-16T23:32:44.252Z,101746.58
2018-05-16T23:35:10.431Z,101745.76
2018-05-16T23:37:36.528Z,101744.47
2018-05-16T23:40:02.634Z,101744.51
2018-05-16T23:42:29.117Z,101742.31
2018-05-16T23:44:55.540Z,101741.91
2018-05-16T23:47:21.667Z,101746.77
2018-05-16T23:49:48.193Z,101745.48
2018-05-16T23:52:14.302Z,101742.89
2018-05-16T23:54:40.412Z,101755.70
2018-05-16T23:57:06.547Z,101755.74
2018-05-16T23:59:33.019Z,101758.01
